createdAt,value
2022-08-29T00:01:49.290Z,1.88
2022-08-29T00:04:15.843Z,2.45
2022-08-29T00:06:43.028Z,2.33
2022-08-29T00:09:09.411Z,2.00
2022-08-29T00:11:35.959Z,1.80
2022-08-29T00:14:07.329Z,1.98
2022-08-29T00:16:47.569Z,2.00
2022-08-29T00:19:15.217Z,2.15
2022-08-29T00:21:41.623Z,1.63
2022-08-29T00:24:08.162Z,2.20
2022-08-29T00:26:35.394Z,2.42
2022-08-29T00:29:01.858Z,1.80
2022-08-29T00:31:28.385Z,2.50
2022-08-29T00:33:57.470Z,2.22
2022-08-29T00:36:25.120Z,2.13
2022-08-29T00:38:52.075Z,2.28
2022-08-29T00:41:19.103Z,1.90
2022-08-29T00:43:45.868Z,2.30
2022-08-29T00:46:38.604Z,2.13
2022-08-29T00:49:29.072Z,1.90
2022-08-29T00:51:57.502Z,2.80
2022-08-29T00:54:24.249Z,2.10
2022-08-29T00:56:51.109Z,1.63
2022-08-29T00:59:23.919Z,1.95
2022-08-29T01:01:52.696Z,1.88
2022-08-29T01:04:24.193Z,1.88
2022-08-29T01:06:51.375Z,2.25
2022-08-29T01:09:18.117Z,1.88
2022-08-29T01:12:03.103Z,2.08
2022-08-29T01:14:29.546Z,2.20
2022-08-29T01:16:57.826Z,2.65
2022-08-29T01:19:30.126Z,2.17
2022-08-29T01:22:08.066Z,2.40
2022-08-29T01:24:39.695Z,2.00
2022-08-29T01:27:06.501Z,1.90
2022-08-29T01:29:34.521Z,2.38
2022-08-29T01:32:01.757Z,1.73
2022-08-29T01:34:28.847Z,1.70
2022-08-29T01:36:58.805Z,1.88
2022-08-29T01:39:36.565Z,2.90
2022-08-29T01:42:07.014Z,2.03
2022-08-29T01:44:33.495Z,2.17
2022-08-29T01:47:03.100Z,2.60
2022-08-29T01:49:31.825Z,2.25
2022-08-29T01:51:58.290Z,2.17
2022-08-29T01:54:24.681Z,1.95
2022-08-29T01:56:52.788Z,2.28
2022-08-29T01:59:22.130Z,2.50
2022-08-29T02:01:53.556Z,2.10
2022-08-29T02:04:20.483Z,2.10
2022-08-29T02:06:46.832Z,2.05
2022-08-29T02:09:13.197Z,2.83
2022-08-29T02:11:39.999Z,2.70
2022-08-29T02:14:07.104Z,2.00
2022-08-29T02:16:33.530Z,2.00
2022-08-29T02:19:00.022Z,2.25
2022-08-29T02:21:28.684Z,2.13
2022-08-29T02:23:58.210Z,2.30
2022-08-29T02:26:24.676Z,2.38
2022-08-29T02:28:51.636Z,2.13
2022-08-29T02:31:19.509Z,2.20
2022-08-29T02:33:46.585Z,1.88
2022-08-29T02:36:13.829Z,2.42
2022-08-29T02:38:40.490Z,1.67
2022-08-29T02:41:09.373Z,1.70
2022-08-29T02:43:39.012Z,2.25
2022-08-29T02:46:05.552Z,2.10
2022-08-29T02:48:32.326Z,2.05
2022-08-29T02:50:59.070Z,1.73
2022-08-29T02:53:30.958Z,2.20
2022-08-29T02:55:57.662Z,1.88
2022-08-29T02:58:24.838Z,2.15
2022-08-29T03:00:52.117Z,2.70
2022-08-29T03:03:18.970Z,1.92
2022-08-29T03:05:46.165Z,2.50
2022-08-29T03:08:16.242Z,2.55
2022-08-29T03:10:43.432Z,2.25
2022-08-29T03:13:10.892Z,1.92
2022-08-29T03:15:37.390Z,2.10
2022-08-29T03:18:04.160Z,2.20
2022-08-29T03:20:30.554Z,2.00
2022-08-29T03:22:57.295Z,1.83
2022-08-29T03:25:24.260Z,1.85
2022-08-29T03:27:51.374Z,2.38
2022-08-29T03:30:18.127Z,1.98
2022-08-29T03:32:44.909Z,2.42
2022-08-29T03:35:12.012Z,2.35
2022-08-29T03:37:38.666Z,2.25
2022-08-29T03:40:06.625Z,2.65
2022-08-29T03:42:33.028Z,1.95
2022-08-29T03:45:03.806Z,2.00
2022-08-29T03:47:30.261Z,2.40
2022-08-29T03:49:56.618Z,2.60
2022-08-29T03:52:23.001Z,2.22
2022-08-29T03:54:49.561Z,2.38
2022-08-29T03:57:15.962Z,2.22
2022-08-29T03:59:42.920Z,2.67
2022-08-29T04:02:09.684Z,2.67
2022-08-29T04:04:54.505Z,2.30
2022-08-29T04:07:20.901Z,2.50
2022-08-29T04:09:47.282Z,2.67
2022-08-29T04:12:13.666Z,2.85
2022-08-29T04:14:40.675Z,2.42
2022-08-29T04:17:08.235Z,2.47
2022-08-29T04:19:35.196Z,2.45
2022-08-29T04:22:02.328Z,2.55
2022-08-29T04:24:31.476Z,2.60
2022-08-29T04:26:58.149Z,2.50
2022-08-29T04:29:24.694Z,2.40
2022-08-29T04:31:51.301Z,2.80
2022-08-29T04:34:17.877Z,2.80
2022-08-29T04:36:45.443Z,2.28
2022-08-29T04:39:12.186Z,1.83
2022-08-29T04:41:40.934Z,2.08
2022-08-29T04:44:08.186Z,2.97
2022-08-29T04:46:34.826Z,3.20
2022-08-29T04:49:04.342Z,3.10
2022-08-29T04:51:34.189Z,3.10
2022-08-29T04:54:00.581Z,10.45
2022-08-29T04:56:26.945Z,8.18
2022-08-29T04:58:53.347Z,7.88
2022-08-29T05:01:22.095Z,6.60
2022-08-29T05:03:48.922Z,5.95
2022-08-29T05:06:17.027Z,6.30
2022-08-29T05:08:45.808Z,4.88
2022-08-29T05:11:22.078Z,3.50
2022-08-29T05:13:49.689Z,4.13
2022-08-29T05:16:17.392Z,3.50
2022-08-29T05:18:44.406Z,2.80
2022-08-29T05:21:12.210Z,2.83
2022-08-29T05:23:38.874Z,2.80
2022-08-29T05:26:05.594Z,3.00
2022-08-29T05:28:33.161Z,2.78
2022-08-29T05:31:00.249Z,2.83
2022-08-29T05:33:27.306Z,2.53
2022-08-29T05:35:53.905Z,2.30
2022-08-29T05:38:20.557Z,2.67
2022-08-29T05:40:46.937Z,2.70
2022-08-29T05:43:13.690Z,2.53
2022-08-29T05:45:41.212Z,2.25
2022-08-29T05:48:09.458Z,2.72
2022-08-29T05:50:41.681Z,2.65
2022-08-29T05:53:09.372Z,2.50
2022-08-29T05:55:40.878Z,2.75
2022-08-29T05:58:07.291Z,2.10
2022-08-29T06:00:33.838Z,3.25
2022-08-29T06:03:01.193Z,2.67
2022-08-29T06:05:27.946Z,2.60
2022-08-29T06:07:54.444Z,2.95
2022-08-29T06:10:20.886Z,2.83
2022-08-29T06:12:47.240Z,2.63
2022-08-29T06:15:13.617Z,2.90
2022-08-29T06:17:40.054Z,2.88
2022-08-29T06:20:10.074Z,2.40
2022-08-29T06:22:40.314Z,3.60
2022-08-29T06:25:22.050Z,3.00
2022-08-29T06:27:54.827Z,2.85
2022-08-29T06:30:21.185Z,3.00
2022-08-29T06:32:47.683Z,3.15
2022-08-29T06:35:14.066Z,3.10
2022-08-29T06:37:41.582Z,3.20
2022-08-29T06:40:09.391Z,3.40
2022-08-29T06:42:35.770Z,2.90
2022-08-29T06:45:02.143Z,3.10
2022-08-29T06:47:28.583Z,3.17
2022-08-29T06:49:54.983Z,2.60
2022-08-29T06:52:21.390Z,3.38
2022-08-29T06:54:47.907Z,2.97
2022-08-29T06:57:14.458Z,2.80
2022-08-29T06:59:40.826Z,2.83
2022-08-29T07:02:07.222Z,2.92
2022-08-29T07:04:33.886Z,2.75
2022-08-29T07:07:01.579Z,3.05
2022-08-29T07:09:29.175Z,2.97
2022-08-29T07:11:55.737Z,3.00
2022-08-29T07:14:22.113Z,2.83
2022-08-29T07:16:48.499Z,2.67
2022-08-29T07:19:17.375Z,2.63
2022-08-29T07:21:43.811Z,2.58
2022-08-29T07:24:10.472Z,2.55
2022-08-29T07:26:42.051Z,2.78
2022-08-29T07:29:12.217Z,3.35
2022-08-29T07:31:39.201Z,2.92
2022-08-29T07:34:06.283Z,2.42
2022-08-29T07:36:34.292Z,3.05
2022-08-29T07:39:01.456Z,2.67
2022-08-29T07:41:28.498Z,2.75
2022-08-29T07:43:54.921Z,3.03
2022-08-29T07:46:21.429Z,3.05
2022-08-29T07:48:47.929Z,2.97
2022-08-29T07:51:16.592Z,2.60
2022-08-29T07:53:43.490Z,2.72
2022-08-29T07:56:12.151Z,3.10
2022-08-29T07:58:39.443Z,3.85
2022-08-29T08:01:06.143Z,2.88
2022-08-29T08:03:33.826Z,3.05
2022-08-29T08:06:00.459Z,3.05
2022-08-29T08:08:33.221Z,2.63
2022-08-29T08:10:59.700Z,2.30
2022-08-29T08:13:26.388Z,3.03
2022-08-29T08:15:52.811Z,2.90
2022-08-29T08:18:19.187Z,2.80
2022-08-29T08:20:48.433Z,3.00
2022-08-29T08:23:19.032Z,2.75
2022-08-29T08:25:45.662Z,2.75
2022-08-29T08:28:12.833Z,3.10
2022-08-29T08:30:39.466Z,3.00
2022-08-29T08:33:05.853Z,3.20
2022-08-29T08:35:34.989Z,3.20
2022-08-29T08:38:01.990Z,3.65
2022-08-29T08:40:28.681Z,3.15
2022-08-29T08:43:01.697Z,3.28
2022-08-29T08:45:39.756Z,2.70
2022-08-29T08:48:10.452Z,2.60
2022-08-29T08:50:43.497Z,2.85
2022-08-29T08:53:09.926Z,2.80
2022-08-29T08:55:51.357Z,2.83
2022-08-29T08:58:17.620Z,3.15
2022-08-29T09:00:47.175Z,2.70
2022-08-29T09:03:56.590Z,2.85
2022-08-29T09:06:45.927Z,3.17
2022-08-29T09:09:20.993Z,3.30
2022-08-29T09:12:30.060Z,3.05
2022-08-29T09:15:16.026Z,3.13
2022-08-29T09:18:07.817Z,2.78
2022-08-29T09:20:38.361Z,2.55
2022-08-29T09:23:19.825Z,2.72
2022-08-29T09:25:47.162Z,2.92
2022-08-29T09:28:13.836Z,3.05
2022-08-29T09:30:42.245Z,2.83
2022-08-29T09:33:13.978Z,2.25
2022-08-29T09:35:40.715Z,3.13
2022-08-29T09:38:09.801Z,3.00
2022-08-29T09:40:47.463Z,2.72
2022-08-29T09:43:24.930Z,3.28
2022-08-29T09:46:12.323Z,2.97
2022-08-29T09:48:50.790Z,2.20
2022-08-29T09:51:23.026Z,3.05
2022-08-29T09:53:52.447Z,2.20
2022-08-29T09:56:22.494Z,2.15
2022-08-29T09:58:59.769Z,2.58
2022-08-29T10:01:28.735Z,2.40
2022-08-29T10:03:59.753Z,2.40
2022-08-29T10:06:44.165Z,2.15
2022-08-29T10:09:24.377Z,2.33
2022-08-29T10:11:56.611Z,2.28
2022-08-29T10:14:30.827Z,2.35
2022-08-29T10:17:24.345Z,3.42
2022-08-29T10:19:51.695Z,2.17
2022-08-29T10:22:29.399Z,2.15
2022-08-29T10:25:04.851Z,2.10
2022-08-29T10:27:37.207Z,2.40
2022-08-29T10:30:09.728Z,2.03
2022-08-29T10:32:57.665Z,2.42
2022-08-29T10:35:34.628Z,2.25
2022-08-29T10:38:10.186Z,2.20
2022-08-29T10:40:48.492Z,2.53
2022-08-29T10:43:38.696Z,2.28
2022-08-29T10:46:26.358Z,2.08
2022-08-29T10:49:04.935Z,2.13
2022-08-29T10:51:47.934Z,2.05
2022-08-29T10:54:32.823Z,2.03
2022-08-29T10:57:00.002Z,2.30
2022-08-29T10:59:37.531Z,2.53
2022-08-29T11:02:09.557Z,2.28
2022-08-29T11:04:45.974Z,3.20
2022-08-29T11:07:20.901Z,5.00
2022-08-29T11:09:53.367Z,2.63
2022-08-29T11:12:44.945Z,2.50
2022-08-29T11:15:35.589Z,2.33
2022-08-29T11:18:15.931Z,2.40
2022-08-29T11:20:56.063Z,2.13
2022-08-29T11:23:36.406Z,2.10
2022-08-29T11:26:10.099Z,2.28
2022-08-29T11:31:18.231Z,2.00
2022-08-29T11:34:00.975Z,1.85
2022-08-29T11:36:40.256Z,2.17
2022-08-29T11:39:28.116Z,2.10
2022-08-29T11:41:58.605Z,2.13
2022-08-29T11:44:37.662Z,2.25
2022-08-29T11:47:46.078Z,2.55
2022-08-29T11:50:21.409Z,2.65
2022-08-29T11:52:51.781Z,2.42
2022-08-29T11:55:23.884Z,1.95
2022-08-29T11:57:53.867Z,2.40
2022-08-29T12:00:37.190Z,2.40
2022-08-29T12:03:15.040Z,2.20
2022-08-29T12:05:59.347Z,2.30
2022-08-29T12:08:37.759Z,2.13
2022-08-29T12:11:04.752Z,2.40
2022-08-29T12:13:46.106Z,2.38
2022-08-29T12:16:16.502Z,1.92
2022-08-29T12:18:45.678Z,2.35
2022-08-29T12:21:33.768Z,2.60
2022-08-29T12:24:00.487Z,2.33
2022-08-29T12:26:42.904Z,2.00
2022-08-29T12:29:33.279Z,2.13
2022-08-29T12:32:43.040Z,2.17
2022-08-29T12:35:40.413Z,2.45
2022-08-29T12:38:22.722Z,2.38
2022-08-29T12:40:51.853Z,2.70
2022-08-29T12:43:20.811Z,2.10
2022-08-29T12:45:49.343Z,2.60
2022-08-29T12:48:25.901Z,2.38
2022-08-29T12:50:53.746Z,1.90
2022-08-29T12:53:24.808Z,2.15
2022-08-29T12:56:13.038Z,2.88
2022-08-29T12:58:42.914Z,2.25
2022-08-29T13:01:30.669Z,2.30
2022-08-29T13:04:01.758Z,2.40
2022-08-29T13:06:29.031Z,2.03
2022-08-29T13:08:55.465Z,1.90
2022-08-29T13:11:25.314Z,2.15
2022-08-29T13:14:11.556Z,2.40
2022-08-29T13:16:39.144Z,2.33
2022-08-29T13:19:18.303Z,2.78
2022-08-29T13:21:44.791Z,2.60
2022-08-29T13:24:16.050Z,2.42
2022-08-29T13:27:04.717Z,2.55
2022-08-29T13:29:38.613Z,2.40
2022-08-29T13:32:26.741Z,2.63
2022-08-29T13:35:15.300Z,2.72
2022-08-29T13:37:45.919Z,2.20
2022-08-29T13:40:54.291Z,2.33
2022-08-29T13:43:34.482Z,2.22
2022-08-29T13:46:18.018Z,2.30
2022-08-29T13:48:44.750Z,2.25
2022-08-29T13:51:11.142Z,2.22
2022-08-29T13:53:37.555Z,2.03
2022-08-29T13:56:04.632Z,2.33
2022-08-29T13:58:31.214Z,2.33
2022-08-29T14:00:58.006Z,2.20
2022-08-29T14:03:24.666Z,2.55
2022-08-29T14:05:56.165Z,1.95
2022-08-29T14:08:23.780Z,2.70
2022-08-29T14:10:51.427Z,2.50
2022-08-29T14:13:17.848Z,2.97
2022-08-29T14:15:44.678Z,5.70
2022-08-29T14:18:11.727Z,2.53
2022-08-29T14:20:38.862Z,4.55
2022-08-29T14:23:05.400Z,3.75
2022-08-29T14:25:31.806Z,3.63
2022-08-29T14:27:58.358Z,2.22
2022-08-29T14:30:25.115Z,2.10
2022-08-29T14:32:51.816Z,2.50
2022-08-29T14:35:27.386Z,3.13
2022-08-29T14:38:00.019Z,2.22
2022-08-29T14:40:28.856Z,1.95
2022-08-29T14:42:56.040Z,2.30
2022-08-29T14:45:22.397Z,2.25
2022-08-29T14:47:48.768Z,2.08
2022-08-29T14:50:15.216Z,2.40
2022-08-29T14:52:41.874Z,2.17
2022-08-29T14:55:09.176Z,2.33
2022-08-29T14:57:36.035Z,2.20
2022-08-29T15:00:07.449Z,2.10
2022-08-29T15:02:33.911Z,2.30
2022-08-29T15:05:00.351Z,2.63
2022-08-29T15:07:27.120Z,2.15
2022-08-29T15:09:53.496Z,2.22
2022-08-29T15:12:21.511Z,2.03
2022-08-29T15:14:48.089Z,2.72
2022-08-29T15:17:15.078Z,2.47
2022-08-29T15:22:28.100Z,2.00
2022-08-29T15:24:54.607Z,2.70
2022-08-29T15:27:26.828Z,2.30
2022-08-29T15:29:54.018Z,2.13
2022-08-29T15:32:20.527Z,2.88
2022-08-29T15:34:46.933Z,2.35
2022-08-29T15:37:13.846Z,2.28
2022-08-29T15:39:40.425Z,2.38
2022-08-29T15:42:11.117Z,2.20
2022-08-29T15:44:40.444Z,2.25
2022-08-29T15:47:10.552Z,2.45
2022-08-29T15:49:37.563Z,2.20
2022-08-29T15:52:03.971Z,2.38
2022-08-29T15:54:30.886Z,3.20
2022-08-29T15:56:57.344Z,2.65
2022-08-29T15:59:41.087Z,2.17
2022-08-29T16:02:11.192Z,2.40
2022-08-29T16:04:39.613Z,2.17
2022-08-29T16:07:06.101Z,2.13
2022-08-29T16:09:32.470Z,1.95
2022-08-29T16:11:58.898Z,2.45
2022-08-29T16:14:58.163Z,2.15
2022-08-29T16:17:14.172Z,2.08
2022-08-29T16:19:41.887Z,2.30
2022-08-29T16:22:09.002Z,2.28
2022-08-29T16:24:35.701Z,2.38
2022-08-29T16:27:02.202Z,2.33
2022-08-29T16:29:28.883Z,2.85
2022-08-29T16:31:58.266Z,2.33
2022-08-29T16:34:26.072Z,2.67
2022-08-29T16:36:56.372Z,2.42
2022-08-29T16:39:22.900Z,2.20
2022-08-29T16:41:49.503Z,2.92
2022-08-29T16:44:15.975Z,2.47
2022-08-29T16:46:42.666Z,2.50
2022-08-29T16:49:09.110Z,2.33
2022-08-29T16:51:35.629Z,2.97
2022-08-29T16:54:02.194Z,2.25
2022-08-29T16:56:28.751Z,2.30
2022-08-29T16:59:04.670Z,2.53
2022-08-29T17:01:43.363Z,2.53
2022-08-29T17:04:18.808Z,2.53
2022-08-29T17:06:48.609Z,2.60
2022-08-29T17:09:17.306Z,2.72
2022-08-29T17:11:44.292Z,2.40
2022-08-29T17:14:11.811Z,1.90
2022-08-29T17:16:39.037Z,2.28
2022-08-29T17:19:06.859Z,2.40
2022-08-29T17:21:33.867Z,2.45
2022-08-29T17:24:02.191Z,2.67
2022-08-29T17:26:29.116Z,2.13
2022-08-29T17:28:55.919Z,2.80
2022-08-29T17:31:22.566Z,2.25
2022-08-29T17:33:49.422Z,2.55
2022-08-29T17:36:16.816Z,2.60
2022-08-29T17:38:45.436Z,2.72
2022-08-29T17:41:17.427Z,2.70
2022-08-29T17:43:45.703Z,2.20
2022-08-29T17:46:12.191Z,2.35
2022-08-29T17:48:38.682Z,2.42
2022-08-29T17:51:05.474Z,2.28
2022-08-29T17:53:32.515Z,2.25
2022-08-29T17:56:09.526Z,2.63
2022-08-29T17:58:35.905Z,2.75
2022-08-29T18:01:02.365Z,2.30
2022-08-29T18:03:29.136Z,2.03
2022-08-29T18:05:55.507Z,2.22
2022-08-29T18:08:21.947Z,2.42
2022-08-29T18:10:48.306Z,2.78
2022-08-29T18:13:16.648Z,2.80
2022-08-29T18:15:46.226Z,2.08
2022-08-29T18:18:17.519Z,2.15
2022-08-29T18:20:44.142Z,2.45
2022-08-29T18:23:10.610Z,2.28
2022-08-29T18:25:37.092Z,2.65
2022-08-29T18:28:03.853Z,2.10
2022-08-29T18:30:30.373Z,2.13
2022-08-29T18:32:56.950Z,5.18
2022-08-29T18:35:23.444Z,2.80
2022-08-29T18:37:49.828Z,2.63
2022-08-29T18:40:16.252Z,3.00
2022-08-29T18:42:42.868Z,2.92
2022-08-29T18:45:09.989Z,3.30
2022-08-29T18:47:36.865Z,2.70
2022-08-29T18:50:25.029Z,2.80
2022-08-29T18:52:52.508Z,2.90
2022-08-29T18:55:19.109Z,2.40
2022-08-29T18:57:47.021Z,3.15
2022-08-29T19:00:14.128Z,2.60
2022-08-29T19:02:40.632Z,2.40
2022-08-29T19:05:07.462Z,2.40
2022-08-29T19:07:33.898Z,3.17
2022-08-29T19:10:00.253Z,2.42
2022-08-29T19:12:26.625Z,2.10
2022-08-29T19:14:53.038Z,2.47
2022-08-29T19:17:19.409Z,2.67
2022-08-29T19:20:04.240Z,2.17
2022-08-29T19:22:38.060Z,2.13
2022-08-29T19:25:05.932Z,2.67
2022-08-29T19:27:43.137Z,2.33
2022-08-29T19:30:11.991Z,2.13
2022-08-29T19:32:39.050Z,2.10
2022-08-29T19:35:05.894Z,1.90
2022-08-29T19:37:32.251Z,2.53
2022-08-29T19:39:58.693Z,2.10
2022-08-29T19:42:25.127Z,2.72
2022-08-29T19:44:51.532Z,2.30
2022-08-29T19:47:17.945Z,2.28
2022-08-29T19:49:48.007Z,2.10
2022-08-29T19:52:15.107Z,2.47
2022-08-29T19:54:41.512Z,2.33
2022-08-29T19:57:14.630Z,2.60
2022-08-29T19:59:42.293Z,2.13
2022-08-29T20:02:09.995Z,2.05
2022-08-29T20:04:36.516Z,1.90
2022-08-29T20:07:03.191Z,2.08
2022-08-29T20:09:29.773Z,2.55
2022-08-29T20:11:57.055Z,2.78
2022-08-29T20:14:23.427Z,2.50
2022-08-29T20:16:49.842Z,2.35
2022-08-29T20:19:18.751Z,2.60
2022-08-29T20:21:45.884Z,2.47
2022-08-29T20:24:15.443Z,2.28
2022-08-29T20:26:42.370Z,2.72
2022-08-29T20:29:10.558Z,2.35
2022-08-29T20:31:37.626Z,2.30
2022-08-29T20:34:04.575Z,2.55
2022-08-29T20:36:49.757Z,2.17
2022-08-29T20:39:18.561Z,2.20
2022-08-29T20:41:55.183Z,2.33
2022-08-29T20:44:23.408Z,2.17
2022-08-29T20:46:50.024Z,2.25
2022-08-29T20:49:19.462Z,2.28
2022-08-29T20:51:46.095Z,2.38
2022-08-29T20:54:14.557Z,3.17
2022-08-29T20:56:41.155Z,2.25
2022-08-29T20:59:07.925Z,2.03
2022-08-29T21:01:35.797Z,2.33
2022-08-29T21:04:22.283Z,2.30
2022-08-29T21:06:49.691Z,2.15
2022-08-29T21:09:16.087Z,1.80
2022-08-29T21:11:42.478Z,2.13
2022-08-29T21:14:10.113Z,2.38
2022-08-29T21:16:36.989Z,2.50
2022-08-29T21:19:08.565Z,2.58
2022-08-29T21:21:36.627Z,2.30
2022-08-29T21:24:05.969Z,2.50
2022-08-29T21:26:33.667Z,2.28
2022-08-29T21:29:01.095Z,2.28
2022-08-29T21:31:27.761Z,2.15
2022-08-29T21:33:54.204Z,2.75
2022-08-29T21:36:25.891Z,2.47
2022-08-29T21:39:00.306Z,2.15
2022-08-29T21:41:28.883Z,2.55
2022-08-29T21:43:55.274Z,2.40
2022-08-29T21:46:31.203Z,2.50
2022-08-29T21:49:00.207Z,2.00
2022-08-29T21:51:28.346Z,1.98
2022-08-29T21:53:57.087Z,2.33
2022-08-29T21:56:24.841Z,2.33
2022-08-29T21:58:53.945Z,2.45
2022-08-29T22:01:22.335Z,2.30
2022-08-29T22:03:50.668Z,2.80
2022-08-29T22:06:17.992Z,2.70
2022-08-29T22:08:45.684Z,2.67
2022-08-29T22:11:22.624Z,2.65
2022-08-29T22:13:50.910Z,2.08
2022-08-29T22:16:29.590Z,2.55
2022-08-29T22:19:01.028Z,2.60
2022-08-29T22:21:34.281Z,2.60
2022-08-29T22:24:01.000Z,2.33
2022-08-29T22:26:28.091Z,2.10
2022-08-29T22:28:55.398Z,2.83
2022-08-29T22:31:22.711Z,1.92
2022-08-29T22:33:49.725Z,2.60
2022-08-29T22:36:16.501Z,2.35
2022-08-29T22:38:44.266Z,2.10
2022-08-29T22:41:15.586Z,2.05
2022-08-29T22:43:43.957Z,2.00
2022-08-29T22:46:16.292Z,2.20
2022-08-29T22:48:43.683Z,2.55
2022-08-29T22:51:21.491Z,2.90
2022-08-29T22:54:08.286Z,2.20
2022-08-29T22:56:36.793Z,2.15
2022-08-29T22:59:04.681Z,1.98
2022-08-29T23:01:32.617Z,2.30
2022-08-29T23:04:00.045Z,2.38
2022-08-29T23:06:27.871Z,2.70
2022-08-29T23:08:55.206Z,2.65
2022-08-29T23:11:22.169Z,2.00
2022-08-29T23:13:48.722Z,2.55
2022-08-29T23:16:16.407Z,2.20
2022-08-29T23:18:42.841Z,2.53
2022-08-29T23:21:09.482Z,2.13
2022-08-29T23:23:38.947Z,2.08
2022-08-29T23:26:05.943Z,2.30
2022-08-29T23:28:34.118Z,2.42
2022-08-29T23:31:01.660Z,2.38
2022-08-29T23:33:28.614Z,2.05
2022-08-29T23:35:55.611Z,2.28
2022-08-29T23:38:22.846Z,2.17
2022-08-29T23:40:50.660Z,2.15
2022-08-29T23:43:18.900Z,2.58
2022-08-29T23:45:45.501Z,2.20
2022-08-29T23:48:12.061Z,2.22
2022-08-29T23:50:38.486Z,2.15
2022-08-29T23:53:04.852Z,2.20
2022-08-29T23:55:31.224Z,2.15
2022-08-29T23:57:57.647Z,2.42
